createdAt,value
2017-06-13T00:00:25.463Z,1009.48
2017-06-13T00:01:35.744Z,1009.42
2017-06-13T00:02:45.402Z,1009.43
2017-06-13T00:03:55.724Z,1009.42
2017-06-13T00:05:06.006Z,1009.39
2017-06-13T00:06:16.294Z,1009.37
2017-06-13T00:07:26.572Z,1009.41
2017-06-13T00:08:36.540Z,1009.44
2017-06-13T00:09:46.825Z,1009.48
2017-06-13T00:10:56.801Z,1009.45
2017-06-13T00:12:07.081Z,1009.36
2017-06-13T00:13:17.355Z,1009.45
2017-06-13T00:14:27.639Z,1009.46
2017-06-13T00:15:37.648Z,1009.44
2017-06-13T00:16:47.925Z,1009.49
2017-06-13T00:17:57.894Z,1009.47
2017-06-13T00:19:08.167Z,1009.45
2017-06-13T00:20:18.452Z,1009.49
2017-06-13T00:21:28.731Z,1009.49
2017-06-13T00:22:39.005Z,1009.55
2017-06-13T00:23:48.987Z,1009.54
2017-06-13T00:24:59.268Z,1009.48
2017-06-13T00:26:09.551Z,1009.55
2017-06-13T00:27:19.826Z,1009.52
2017-06-13T00:28:29.475Z,1009.54
2017-06-13T00:29:39.748Z,1009.58
2017-06-13T00:30:50.028Z,1009.53
2017-06-13T00:32:00.304Z,1009.54
2017-06-13T00:33:10.283Z,1009.56
2017-06-13T00:34:20.558Z,1009.53
2017-06-13T00:35:30.526Z,1009.5
2017-06-13T00:36:40.802Z,1009.53
2017-06-13T00:37:51.093Z,1009.56
2017-06-13T00:39:01.370Z,1009.51
2017-06-13T00:40:11.641Z,1009.52
2017-06-13T00:41:21.914Z,1009.55
2017-06-13T00:42:31.869Z,1009.57
2017-06-13T00:43:41.835Z,1009.49
2017-06-13T00:44:52.119Z,1009.5
2017-06-13T00:46:02.403Z,1009.55
2017-06-13T00:47:12.375Z,1009.57
2017-06-13T00:48:22.648Z,1009.53
2017-06-13T00:49:32.938Z,1009.54
2017-06-13T00:50:43.215Z,1009.58
2017-06-13T00:51:53.487Z,1009.55
2017-06-13T00:53:03.774Z,1009.57
2017-06-13T00:54:14.058Z,1009.61
2017-06-13T00:55:24.020Z,1009.51
2017-06-13T00:56:33.986Z,1009.61
2017-06-13T00:57:44.264Z,1009.55
2017-06-13T00:58:54.539Z,1009.6
2017-06-13T01:00:04.811Z,1009.58
2017-06-13T01:01:15.084Z,1009.56
2017-06-13T01:02:25.375Z,1009.55
2017-06-13T01:03:35.665Z,1009.57
2017-06-13T01:04:45.954Z,1009.58
2017-06-13T01:05:56.226Z,1009.55
2017-06-13T01:07:06.199Z,1009.52
2017-06-13T01:08:16.171Z,1009.57
2017-06-13T01:09:26.450Z,1009.53
2017-06-13T01:10:36.729Z,1009.55
2017-06-13T01:11:46.688Z,1009.54
2017-06-13T01:12:56.658Z,1009.56
2017-06-13T01:14:06.630Z,1009.53
2017-06-13T01:15:16.899Z,1009.49
2017-06-13T01:16:27.178Z,1009.51
2017-06-13T01:17:37.138Z,1009.51
2017-06-13T01:18:47.101Z,1009.51
2017-06-13T01:19:56.763Z,1009.47
2017-06-13T01:21:07.049Z,1009.53
2017-06-13T01:22:17.320Z,1009.46
2017-06-13T01:23:27.285Z,1009.43
2017-06-13T01:24:36.958Z,1009.48
2017-06-13T01:25:46.612Z,1009.53
2017-06-13T01:26:56.885Z,1009.48
2017-06-13T01:28:06.864Z,1009.47
2017-06-13T01:29:17.146Z,1009.5
2017-06-13T01:30:27.695Z,1009.51
2017-06-13T01:31:37.667Z,1009.54
2017-06-13T01:32:47.939Z,1009.5
2017-06-13T01:33:58.215Z,1009.47
2017-06-13T01:35:08.174Z,1009.54
2017-06-13T01:36:18.456Z,1009.49
2017-06-13T01:37:28.726Z,1009.55
2017-06-13T01:38:38.712Z,1009.53
2017-06-13T01:39:48.990Z,1009.53
2017-06-13T01:40:59.275Z,1009.56
2017-06-13T01:42:09.557Z,1009.57
2017-06-13T01:43:19.835Z,1009.57
2017-06-13T01:44:29.803Z,1009.51
2017-06-13T01:45:40.084Z,1009.52
2017-06-13T01:46:50.371Z,1009.5
2017-06-13T01:48:00.652Z,1009.48
2017-06-13T01:49:10.931Z,1009.52
2017-06-13T01:50:20.907Z,1009.51
2017-06-13T01:51:31.209Z,1009.53
2017-06-13T01:52:41.489Z,1009.5
2017-06-13T01:53:51.134Z,1009.45
2017-06-13T01:55:01.418Z,1009.5
2017-06-13T01:56:11.380Z,1009.47
2017-06-13T01:57:21.651Z,1009.46
2017-06-13T01:58:31.929Z,1009.44
2017-06-13T01:59:41.276Z,1009.43
2017-06-13T02:00:51.552Z,1009.47
2017-06-13T02:02:01.515Z,1009.47
2017-06-13T02:03:11.790Z,1009.49
2017-06-13T02:04:22.068Z,1009.48
2017-06-13T02:05:32.367Z,1009.44
2017-06-13T02:06:42.654Z,1009.44
2017-06-13T02:07:52.619Z,1009.47
2017-06-13T02:09:02.890Z,1009.46
2017-06-13T02:10:13.166Z,1009.44
2017-06-13T02:11:23.450Z,1009.41
2017-06-13T02:12:33.722Z,1009.44
2017-06-13T02:13:43.996Z,1009.48
2017-06-13T02:14:54.274Z,1009.41
2017-06-13T02:16:04.237Z,1009.41
2017-06-13T02:17:14.529Z,1009.46
2017-06-13T02:18:24.802Z,1009.45
2017-06-13T02:19:35.082Z,1009.4
2017-06-13T02:20:45.365Z,1009.43
2017-06-13T02:21:55.640Z,1009.39
2017-06-13T02:23:05.925Z,1009.39
2017-06-13T02:24:15.896Z,1009.46
2017-06-13T02:25:25.260Z,1009.52
2017-06-13T02:26:35.228Z,1009.43
2017-06-13T02:27:45.217Z,1009.48
2017-06-13T02:28:54.867Z,1009.45
2017-06-13T02:30:05.144Z,1009.45
2017-06-13T02:31:15.424Z,1009.45
2017-06-13T02:32:25.394Z,1009.41
2017-06-13T02:33:35.363Z,1009.43
2017-06-13T02:34:45.341Z,1009.4
2017-06-13T02:35:55.307Z,1009.43
2017-06-13T02:37:05.286Z,1009.42
2017-06-13T02:38:15.563Z,1009.5
2017-06-13T02:39:25.539Z,1009.53
2017-06-13T02:40:36.068Z,1009.48
2017-06-13T02:41:46.339Z,1009.44
2017-06-13T02:42:56.310Z,1009.48
2017-06-13T02:44:06.274Z,1009.47
2017-06-13T02:45:16.559Z,1009.45
2017-06-13T02:46:26.831Z,1009.42
2017-06-13T02:47:37.108Z,1009.44
2017-06-13T02:48:47.397Z,1009.4
2017-06-13T02:49:57.681Z,1009.41
2017-06-13T02:51:07.962Z,1009.45
2017-06-13T02:52:18.236Z,1009.41
2017-06-13T02:53:28.225Z,1009.42
2017-06-13T02:54:38.191Z,1009.41
2017-06-13T02:55:48.467Z,1009.42
2017-06-13T02:56:58.740Z,1009.44
2017-06-13T02:58:09.017Z,1009.44
2017-06-13T02:59:19.306Z,1009.39
2017-06-13T03:00:29.588Z,1009.4
2017-06-13T03:01:39.868Z,1009.39
2017-06-13T03:02:49.832Z,1009.43
2017-06-13T03:04:00.104Z,1009.39
2017-06-13T03:05:10.376Z,1009.39
2017-06-13T03:06:20.652Z,1009.41
2017-06-13T03:07:30.938Z,1009.41
2017-06-13T03:08:41.217Z,1009.38
2017-06-13T03:09:51.180Z,1009.43
2017-06-13T03:11:01.461Z,1009.46
2017-06-13T03:12:11.737Z,1009.38
2017-06-13T03:13:21.702Z,1009.39
2017-06-13T03:14:31.974Z,1009.46
2017-06-13T03:15:41.952Z,1009.47
2017-06-13T03:16:51.919Z,1009.5
2017-06-13T03:18:02.201Z,1009.48
2017-06-13T03:19:12.481Z,1009.49
2017-06-13T03:20:22.761Z,1009.52
2017-06-13T03:21:32.725Z,1009.51
2017-06-13T03:22:43.004Z,1009.53
2017-06-13T03:23:53.285Z,1009.51
2017-06-13T03:25:03.248Z,1009.5
2017-06-13T03:26:13.525Z,1009.5
2017-06-13T03:27:23.498Z,1009.55
2017-06-13T03:28:33.459Z,1009.56
2017-06-13T03:29:43.741Z,1009.49
2017-06-13T03:30:54.023Z,1009.49
2017-06-13T03:32:03.993Z,1009.54
2017-06-13T03:33:13.971Z,1009.49
2017-06-13T03:34:24.251Z,1009.5
2017-06-13T03:35:34.526Z,1009.49
2017-06-13T03:36:44.810Z,1009.44
2017-06-13T03:37:55.087Z,1009.52
2017-06-13T03:39:05.363Z,1009.54
2017-06-13T03:40:15.641Z,1009.54
2017-06-13T03:41:25.921Z,1009.56
2017-06-13T03:42:35.582Z,1009.55
2017-06-13T03:43:45.861Z,1009.58
2017-06-13T03:44:55.827Z,1009.58
2017-06-13T03:46:06.110Z,1009.57
2017-06-13T03:47:16.086Z,1009.53
2017-06-13T03:48:26.358Z,1009.55
2017-06-13T03:49:36.782Z,1009.59
2017-06-13T03:50:47.059Z,1009.59
2017-06-13T03:51:57.339Z,1009.61
2017-06-13T03:53:07.616Z,1009.56
2017-06-13T03:54:17.892Z,1009.62
2017-06-13T03:55:28.171Z,1009.57
2017-06-13T03:56:38.444Z,1009.6
2017-06-13T03:57:48.714Z,1009.57
2017-06-13T03:58:58.996Z,1009.59
2017-06-13T04:00:09.313Z,1009.55
2017-06-13T04:01:19.585Z,1009.56
2017-06-13T04:02:29.871Z,1009.62
2017-06-13T04:03:40.155Z,1009.6
2017-06-13T04:04:50.432Z,1009.71
2017-06-13T04:06:00.718Z,1009.69
2017-06-13T04:07:11.010Z,1009.73
2017-06-13T04:08:21.292Z,1009.78
2017-06-13T04:09:31.251Z,1009.72
2017-06-13T04:10:41.529Z,1009.76
2017-06-13T04:11:51.808Z,1009.76
2017-06-13T04:13:02.097Z,1009.75
2017-06-13T04:14:12.382Z,1009.79
2017-06-13T04:15:22.350Z,1009.83
2017-06-13T04:16:32.317Z,1009.74
2017-06-13T04:17:42.595Z,1009.8
2017-06-13T04:18:52.560Z,1009.86
2017-06-13T04:20:02.528Z,1009.79
2017-06-13T04:21:12.810Z,1009.89
2017-06-13T04:22:23.094Z,1009.91
2017-06-13T04:23:33.377Z,1009.88
2017-06-13T04:24:44.006Z,1009.9
2017-06-13T04:25:54.304Z,1009.89
2017-06-13T04:27:04.275Z,1009.89
2017-06-13T04:28:14.575Z,1009.89
2017-06-13T04:29:24.552Z,1009.91
2017-06-13T04:30:34.831Z,1009.89
2017-06-13T04:31:45.112Z,1009.92
2017-06-13T04:32:55.083Z,1009.86
2017-06-13T04:34:04.747Z,1009.9
2017-06-13T04:35:14.726Z,1009.9
2017-06-13T04:36:25.005Z,1009.88
2017-06-13T04:37:35.286Z,1009.88
2017-06-13T04:38:45.266Z,1009.92
2017-06-13T04:39:55.245Z,1009.9
2017-06-13T04:41:05.555Z,1009.89
2017-06-13T04:42:15.851Z,1009.92
2017-06-13T04:43:25.817Z,1009.94
2017-06-13T04:44:36.094Z,1009.92
2017-06-13T04:45:46.368Z,1009.93
2017-06-13T04:46:56.339Z,1009.96
2017-06-13T04:48:06.623Z,1009.92
2017-06-13T04:49:16.906Z,1009.89
2017-06-13T04:50:27.190Z,1009.85
2017-06-13T04:51:37.473Z,1009.83
2017-06-13T04:52:47.446Z,1009.89
2017-06-13T04:53:57.735Z,1009.9
2017-06-13T04:55:07.422Z,1009.88
2017-06-13T04:56:17.713Z,1009.92
2017-06-13T04:57:27.683Z,1009.95
2017-06-13T04:58:37.651Z,1009.93
2017-06-13T04:59:47.629Z,1009.92
2017-06-13T05:00:57.908Z,1009.94
2017-06-13T05:02:08.177Z,1009.95
2017-06-13T05:03:18.471Z,1009.95
2017-06-13T05:04:28.757Z,1009.9
2017-06-13T05:05:39.047Z,1009.97
2017-06-13T05:06:48.709Z,1009.9
2017-06-13T05:07:58.686Z,1009.97
2017-06-13T05:09:08.975Z,1009.97
2017-06-13T05:10:19.258Z,1009.97
2017-06-13T05:11:29.538Z,1009.97
2017-06-13T05:12:39.823Z,1009.97
2017-06-13T05:13:50.321Z,1010.03
2017-06-13T05:15:00.607Z,1010.03
2017-06-13T05:16:10.892Z,1010
2017-06-13T05:17:21.197Z,1010.07
2017-06-13T05:18:31.809Z,1010.01
2017-06-13T05:19:42.129Z,1010.04
2017-06-13T05:20:52.427Z,1010.05
2017-06-13T05:22:02.115Z,1010.08
2017-06-13T05:23:12.397Z,1010.02
2017-06-13T05:24:22.687Z,1010.02
2017-06-13T05:25:32.975Z,1010.04
2017-06-13T05:26:42.652Z,1010.03
2017-06-13T05:27:53.121Z,1010.02
2017-06-13T05:29:03.104Z,1010.07
2017-06-13T05:30:13.405Z,1010.06
2017-06-13T05:31:23.691Z,1010.08
2017-06-13T05:32:33.973Z,1010.02
2017-06-13T05:33:44.284Z,1010.04
2017-06-13T05:34:54.610Z,1010.03
2017-06-13T05:36:04.900Z,1009.98
2017-06-13T05:37:14.964Z,1010.04
2017-06-13T05:38:25.255Z,1010.07
2017-06-13T05:39:35.537Z,1010.09
2017-06-13T05:40:45.229Z,1010.1
2017-06-13T05:41:55.523Z,1010.1
2017-06-13T05:43:05.797Z,1010.16
2017-06-13T05:44:16.084Z,1010.17
2017-06-13T05:45:26.064Z,1010.12
2017-06-13T05:46:36.382Z,1010.1
2017-06-13T05:47:46.658Z,1010.13
2017-06-13T05:48:56.948Z,1010.14
2017-06-13T05:50:06.914Z,1010.07
2017-06-13T05:51:17.357Z,1010.09
2017-06-13T05:52:27.686Z,1010.04
2017-06-13T05:53:37.977Z,1010.09
2017-06-13T05:54:47.959Z,1010.03
2017-06-13T05:55:57.940Z,1010.03
2017-06-13T05:57:08.234Z,1010.11
2017-06-13T05:58:18.560Z,1009.99
2017-06-13T05:59:28.841Z,1010.06
2017-06-13T06:00:38.825Z,1010.1
2017-06-13T06:01:49.114Z,1010.05
2017-06-13T06:02:59.393Z,1010.06
2017-06-13T06:04:09.721Z,1010.11
2017-06-13T06:05:19.699Z,1010.1
2017-06-13T06:06:29.984Z,1010.1
2017-06-13T06:07:39.670Z,1010.11
2017-06-13T06:08:49.642Z,1010.11
2017-06-13T06:09:59.650Z,1010.09
2017-06-13T06:11:09.942Z,1010.09
2017-06-13T06:12:19.952Z,1010.1
2017-06-13T06:13:29.979Z,1010.1
2017-06-13T06:14:40.295Z,1010.06
2017-06-13T06:15:50.580Z,1010.1
2017-06-13T06:17:00.870Z,1010.08
2017-06-13T06:18:10.857Z,1010.06
2017-06-13T06:19:21.156Z,1010.09
2017-06-13T06:20:31.169Z,1010.06
2017-06-13T06:21:41.143Z,1010.07
2017-06-13T06:22:51.462Z,1010.07
2017-06-13T06:24:01.457Z,1010.1
2017-06-13T06:25:11.752Z,1010.05
2017-06-13T06:26:22.046Z,1010.09
2017-06-13T06:27:32.044Z,1010.14
2017-06-13T06:28:42.322Z,1010.14
2017-06-13T06:29:52.618Z,1010.1
2017-06-13T06:31:02.626Z,1010.09
2017-06-13T06:32:12.921Z,1010.12
2017-06-13T06:33:23.217Z,1010.11
2017-06-13T06:34:33.209Z,1010.14
2017-06-13T06:35:43.521Z,1010.12
2017-06-13T06:36:53.815Z,1010.13
2017-06-13T06:38:03.820Z,1010.1
2017-06-13T06:39:14.117Z,1010.11
2017-06-13T06:40:24.411Z,1010.11
2017-06-13T06:41:34.712Z,1010.07
2017-06-13T06:42:45.036Z,1010.09
2017-06-13T06:43:55.022Z,1010.14
2017-06-13T06:45:05.322Z,1010.08
2017-06-13T06:46:15.305Z,1010.07
2017-06-13T06:47:25.631Z,1010.09
2017-06-13T06:48:35.925Z,1010.18
2017-06-13T06:49:46.230Z,1010.15
2017-06-13T06:50:56.213Z,1010.16
2017-06-13T06:52:06.196Z,1010.16
2017-06-13T06:53:16.497Z,1010.14
2017-06-13T06:54:26.788Z,1010.15
2017-06-13T06:55:36.797Z,1010.1
2017-06-13T06:56:46.487Z,1010.12
2017-06-13T06:57:56.823Z,1010.09
2017-06-13T06:59:06.802Z,1010.06
2017-06-13T07:00:16.775Z,1010.08
2017-06-13T07:01:26.457Z,1010.03
2017-06-13T07:02:36.753Z,1010.05
2017-06-13T07:03:47.047Z,1010.12
2017-06-13T07:04:57.345Z,1010.09
2017-06-13T07:06:07.344Z,1010.11
2017-06-13T07:07:17.645Z,1010.15
2017-06-13T07:08:27.946Z,1010.12
2017-06-13T07:09:38.237Z,1010.17
2017-06-13T07:10:48.613Z,1010.08
2017-06-13T07:11:58.924Z,1010.1
2017-06-13T07:13:09.241Z,1010.13
2017-06-13T07:14:19.541Z,1010.09
2017-06-13T07:15:29.837Z,1010.18
2017-06-13T07:16:39.833Z,1010.18
2017-06-13T07:17:50.135Z,1010.22
2017-06-13T07:19:00.124Z,1010.25
2017-06-13T07:20:10.659Z,1010.14
2017-06-13T07:21:20.332Z,1010.19
2017-06-13T07:22:30.643Z,1010.3
2017-06-13T07:23:40.932Z,1010.24
2017-06-13T07:24:51.240Z,1010.31
2017-06-13T07:26:01.589Z,1010.26
2017-06-13T07:27:11.869Z,1010.18
2017-06-13T07:28:21.868Z,1010.24
2017-06-13T07:29:31.862Z,1010.19
2017-06-13T07:30:42.148Z,1010.23
2017-06-13T07:31:52.473Z,1010.17
2017-06-13T07:33:02.774Z,1010.24
2017-06-13T07:34:13.076Z,1010.24
2017-06-13T07:35:23.367Z,1010.36
2017-06-13T07:36:33.343Z,1010.26
2017-06-13T07:37:43.019Z,1010.24
2017-06-13T07:38:52.691Z,1010.29
2017-06-13T07:40:02.988Z,1010.36
2017-06-13T07:41:13.294Z,1010.25
2017-06-13T07:42:23.277Z,1010.21
2017-06-13T07:43:33.569Z,1010.21
2017-06-13T07:44:43.872Z,1010.15
2017-06-13T07:45:53.877Z,1010.21
2017-06-13T07:47:04.173Z,1010.14
2017-06-13T07:48:14.471Z,1010.27
2017-06-13T07:49:24.765Z,1010.2
2017-06-13T07:50:35.075Z,1010.23
2017-06-13T07:51:45.369Z,1010.24
2017-06-13T07:52:55.650Z,1010.17
2017-06-13T07:54:05.617Z,1010.19
2017-06-13T07:55:15.587Z,1010.17
2017-06-13T07:56:25.878Z,1010.18
2017-06-13T07:57:36.196Z,1010.21
2017-06-13T07:58:46.188Z,1010.29
2017-06-13T07:59:56.160Z,1010.23
2017-06-13T08:01:06.443Z,1010.38
2017-06-13T08:02:16.746Z,1010.37
2017-06-13T08:03:26.721Z,1010.36
2017-06-13T08:04:36.698Z,1010.4
2017-06-13T08:05:46.990Z,1010.39
2017-06-13T08:06:56.976Z,1010.37
2017-06-13T08:08:07.271Z,1010.41
2017-06-13T08:09:17.236Z,1010.44
2017-06-13T08:10:27.521Z,1010.4
2017-06-13T08:11:37.518Z,1010.41
2017-06-13T08:12:47.820Z,1010.36
2017-06-13T08:13:58.145Z,1010.4
2017-06-13T08:15:08.120Z,1010.38
2017-06-13T08:16:18.411Z,1010.39
2017-06-13T08:17:28.071Z,1010.41
2017-06-13T08:18:38.375Z,1010.51
2017-06-13T08:19:48.349Z,1010.51
2017-06-13T08:20:58.640Z,1010.53
2017-06-13T08:22:08.612Z,1010.52
2017-06-13T08:23:18.903Z,1010.56
2017-06-13T08:24:29.190Z,1010.5
2017-06-13T08:25:39.486Z,1010.54
2017-06-13T08:26:49.466Z,1010.52
2017-06-13T08:27:59.769Z,1010.6
2017-06-13T08:29:10.079Z,1010.54
2017-06-13T08:30:20.373Z,1010.53
2017-06-13T08:31:30.354Z,1010.55
2017-06-13T08:32:40.338Z,1010.53
2017-06-13T08:33:50.655Z,1010.64
2017-06-13T08:35:00.626Z,1010.57
2017-06-13T08:36:10.900Z,1010.55
2017-06-13T08:37:20.881Z,1010.52
2017-06-13T08:38:31.174Z,1010.59
2017-06-13T08:39:41.454Z,1010.62
2017-06-13T08:40:51.741Z,1010.65
2017-06-13T08:42:02.042Z,1010.61
2017-06-13T08:43:12.339Z,1010.62
2017-06-13T08:44:22.310Z,1010.65
2017-06-13T08:45:32.281Z,1010.67
2017-06-13T08:46:42.587Z,1010.63
2017-06-13T08:47:52.879Z,1010.68
2017-06-13T08:49:03.162Z,1010.68
2017-06-13T08:50:13.461Z,1010.77
2017-06-13T08:51:23.119Z,1010.75
2017-06-13T08:52:33.415Z,1010.68
2017-06-13T08:53:43.702Z,1010.72
2017-06-13T08:54:53.676Z,1010.76
2017-06-13T08:56:03.651Z,1010.69
2017-06-13T08:57:13.638Z,1010.75
2017-06-13T08:58:23.618Z,1010.75
2017-06-13T08:59:33.894Z,1010.86
2017-06-13T09:00:43.869Z,1010.81
2017-06-13T09:01:54.162Z,1010.88
2017-06-13T09:03:04.458Z,1010.83
2017-06-13T09:04:14.793Z,1010.88
2017-06-13T09:05:25.076Z,1010.82
2017-06-13T09:06:35.039Z,1010.82
2017-06-13T09:07:44.385Z,1010.86
2017-06-13T09:08:54.678Z,1010.81
2017-06-13T09:10:04.963Z,1010.94
2017-06-13T09:11:15.263Z,1010.96
2017-06-13T09:12:24.955Z,1011
2017-06-13T09:13:35.245Z,1010.93
2017-06-13T09:14:45.226Z,1011.04
2017-06-13T09:15:55.523Z,1011.04
2017-06-13T09:17:05.812Z,1011.1
2017-06-13T09:18:15.402Z,1011.04
2017-06-13T09:19:25.077Z,1011.01
2017-06-13T09:20:35.384Z,1011.09
2017-06-13T09:21:45.388Z,1011.11
2017-06-13T09:22:55.692Z,1011.01
2017-06-13T09:24:05.663Z,1011.1
2017-06-13T09:25:15.961Z,1011.1
2017-06-13T09:26:25.979Z,1011.03
2017-06-13T09:27:36.287Z,1011.15
2017-06-13T09:28:46.581Z,1011.1
2017-06-13T09:29:56.887Z,1011.06
2017-06-13T09:31:07.179Z,1011.07
2017-06-13T09:32:17.166Z,1011.04
2017-06-13T09:33:27.466Z,1011.04
2017-06-13T09:34:37.437Z,1011.08
2017-06-13T09:35:47.726Z,1011
2017-06-13T09:36:57.707Z,1011.01
2017-06-13T09:38:07.710Z,1011
2017-06-13T09:39:17.684Z,1010.94
2017-06-13T09:40:27.673Z,1010.92
2017-06-13T09:41:37.342Z,1010.88
2017-06-13T09:42:47.315Z,1010.87
2017-06-13T09:43:57.298Z,1010.86
2017-06-13T09:45:07.278Z,1010.89
2017-06-13T09:46:17.563Z,1010.92
2017-06-13T09:47:27.543Z,1010.89
2017-06-13T09:48:37.517Z,1010.87
2017-06-13T09:49:47.490Z,1010.91
2017-06-13T09:50:57.769Z,1010.88
2017-06-13T09:52:08.068Z,1010.94
2017-06-13T09:53:18.359Z,1010.93
2017-06-13T09:54:28.353Z,1010.93
2017-06-13T09:55:38.343Z,1011.04
2017-06-13T09:56:48.639Z,1010.97
2017-06-13T09:57:58.927Z,1010.97
2017-06-13T09:59:08.912Z,1011
2017-06-13T10:00:18.890Z,1010.93
2017-06-13T10:01:29.177Z,1010.95
2017-06-13T10:02:39.157Z,1010.91
2017-06-13T10:03:49.445Z,1010.93
2017-06-13T10:04:59.106Z,1010.93
2017-06-13T10:06:09.436Z,1010.99
2017-06-13T10:07:19.725Z,1010.91
2017-06-13T10:08:29.697Z,1011.04
2017-06-13T10:09:39.986Z,1011.06
2017-06-13T10:10:50.280Z,1011.04
2017-06-13T10:12:00.570Z,1011.04
2017-06-13T10:13:10.547Z,1011.04
2017-06-13T10:14:20.831Z,1011.03
2017-06-13T10:15:31.142Z,1011
2017-06-13T10:16:41.424Z,1011.1
2017-06-13T10:17:51.083Z,1011.07
2017-06-13T10:19:01.364Z,1011.05
2017-06-13T10:20:11.350Z,1011.02
2017-06-13T10:21:21.670Z,1011.05
2017-06-13T10:22:31.992Z,1011
2017-06-13T10:23:41.977Z,1011
2017-06-13T10:24:52.262Z,1011.05
2017-06-13T10:26:02.548Z,1011.12
2017-06-13T10:27:12.828Z,1011.12
2017-06-13T10:28:22.819Z,1011.13
2017-06-13T10:29:33.099Z,1011.21
2017-06-13T10:30:43.377Z,1011.26
2017-06-13T10:31:53.367Z,1011.22
2017-06-13T10:33:03.657Z,1011.24
2017-06-13T10:34:13.945Z,1011.16
2017-06-13T10:35:24.258Z,1011.18
2017-06-13T10:36:34.261Z,1011.19
2017-06-13T10:37:44.546Z,1011.22
2017-06-13T10:38:54.853Z,1011.21
2017-06-13T10:40:04.851Z,1011.24
2017-06-13T10:41:14.830Z,1011.25
2017-06-13T10:42:25.134Z,1011.28
2017-06-13T10:43:35.113Z,1011.26
2017-06-13T10:44:45.089Z,1011.27
2017-06-13T10:45:55.380Z,1011.24
2017-06-13T10:47:05.046Z,1011.26
2017-06-13T10:48:15.344Z,1011.26
2017-06-13T10:49:25.639Z,1011.22
2017-06-13T10:50:35.936Z,1011.27
2017-06-13T10:51:46.252Z,1011.29
2017-06-13T10:52:56.444Z,1011.24
2017-06-13T10:54:06.428Z,1011.21
2017-06-13T10:55:16.406Z,1011.21
2017-06-13T10:56:26.406Z,1011.23
2017-06-13T10:57:36.392Z,1011.24
2017-06-13T10:58:46.360Z,1011.24
2017-06-13T10:59:56.649Z,1011.18
2017-06-13T11:01:06.953Z,1011.21
2017-06-13T11:02:17.235Z,1011.21
2017-06-13T11:03:27.773Z,1011.21
2017-06-13T11:04:38.061Z,1011.24
2017-06-13T11:05:48.485Z,1011.2
2017-06-13T11:07:03.273Z,1011.22
2017-06-13T11:08:13.255Z,1011.23
2017-06-13T11:09:23.551Z,1011.19
2017-06-13T11:10:33.861Z,1011.19
2017-06-13T11:11:44.158Z,1011.27
2017-06-13T11:12:54.150Z,1011.27
2017-06-13T11:14:04.439Z,1011.3
2017-06-13T11:15:14.715Z,1011.25
2017-06-13T11:16:25.005Z,1011.27
2017-06-13T11:17:35.292Z,1011.32
2017-06-13T11:18:45.261Z,1011.21
2017-06-13T11:19:55.550Z,1011.26
2017-06-13T11:21:05.851Z,1011.24
2017-06-13T11:22:16.204Z,1011.23
2017-06-13T11:23:26.492Z,1011.28
2017-06-13T11:24:36.498Z,1011.26
2017-06-13T11:25:46.798Z,1011.22
2017-06-13T11:26:56.459Z,1011.25
2017-06-13T11:28:06.432Z,1011.22
2017-06-13T11:29:16.136Z,1011.27
2017-06-13T11:30:26.349Z,1011.28
2017-06-13T11:31:36.338Z,1011.24
2017-06-13T11:32:46.626Z,1011.29
2017-06-13T11:33:56.934Z,1011.26
2017-06-13T11:35:07.231Z,1011.29
2017-06-13T11:36:17.211Z,1011.25
2017-06-13T11:37:27.526Z,1011.33
2017-06-13T11:38:37.865Z,1011.28
2017-06-13T11:39:48.162Z,1011.26
2017-06-13T11:40:58.467Z,1011.33
2017-06-13T11:42:08.792Z,1011.31
2017-06-13T11:43:19.087Z,1011.34
2017-06-13T11:44:29.385Z,1011.34
2017-06-13T11:45:39.345Z,1011.34
2017-06-13T11:46:49.627Z,1011.34
2017-06-13T11:47:59.309Z,1011.3
2017-06-13T11:49:09.294Z,1011.33
2017-06-13T11:50:19.599Z,1011.32
2017-06-13T11:51:29.814Z,1011.29
2017-06-13T11:52:39.483Z,1011.23
2017-06-13T11:53:49.794Z,1011.35
2017-06-13T11:54:59.763Z,1011.29
2017-06-13T11:56:10.082Z,1011.31
2017-06-13T11:57:20.085Z,1011.3
2017-06-13T11:58:30.089Z,1011.36
2017-06-13T11:59:40.103Z,1011.45
2017-06-13T12:00:50.402Z,1011.37
2017-06-13T12:02:00.375Z,1011.37
2017-06-13T12:03:10.374Z,1011.33
2017-06-13T12:04:20.662Z,1011.32
2017-06-13T12:05:30.973Z,1011.37
2017-06-13T12:06:40.969Z,1011.33
2017-06-13T12:07:51.261Z,1011.33
2017-06-13T12:09:01.234Z,1011.36
2017-06-13T12:10:11.531Z,1011.36
2017-06-13T12:11:21.532Z,1011.4
2017-06-13T12:12:31.199Z,1011.4
2017-06-13T12:13:41.185Z,1011.48
2017-06-13T12:14:51.159Z,1011.42
2017-06-13T12:16:01.457Z,1011.47
2017-06-13T12:17:11.744Z,1011.5
2017-06-13T12:18:21.727Z,1011.53
2017-06-13T12:19:32.007Z,1011.52
2017-06-13T12:20:42.303Z,1011.51
2017-06-13T12:21:52.594Z,1011.45
2017-06-13T12:23:02.870Z,1011.51
2017-06-13T12:24:13.175Z,1011.5
2017-06-13T12:25:23.395Z,1011.49
2017-06-13T12:26:33.416Z,1011.49
2017-06-13T12:27:43.720Z,1011.48
2017-06-13T12:28:54.009Z,1011.54
2017-06-13T12:30:03.986Z,1011.52
2017-06-13T12:31:14.284Z,1011.54
2017-06-13T12:32:24.575Z,1011.54
2017-06-13T12:33:34.869Z,1011.47
2017-06-13T12:34:45.176Z,1011.55
2017-06-13T12:35:55.474Z,1011.44
2017-06-13T12:37:05.758Z,1011.49
2017-06-13T12:38:15.741Z,1011.48
2017-06-13T12:39:25.717Z,1011.48
2017-06-13T12:40:35.696Z,1011.53
2017-06-13T12:41:45.700Z,1011.57
2017-06-13T12:42:55.692Z,1011.65
2017-06-13T12:44:05.980Z,1011.67
2017-06-13T12:45:16.312Z,1011.64
2017-06-13T12:46:26.604Z,1011.6
2017-06-13T12:47:36.892Z,1011.62
2017-06-13T12:48:46.885Z,1011.65
2017-06-13T12:49:57.190Z,1011.51
2017-06-13T12:51:07.498Z,1011.62
2017-06-13T12:52:17.789Z,1011.62
2017-06-13T12:53:28.088Z,1011.58
2017-06-13T12:54:38.419Z,1011.57
2017-06-13T12:55:48.400Z,1011.63
2017-06-13T12:56:58.730Z,1011.63
2017-06-13T12:58:09.017Z,1011.6
2017-06-13T12:59:19.303Z,1011.59
2017-06-13T13:00:29.592Z,1011.61
2017-06-13T13:01:39.876Z,1011.54
2017-06-13T13:02:50.179Z,1011.53
2017-06-13T13:04:00.161Z,1011.54
2017-06-13T13:05:10.441Z,1011.53
2017-06-13T13:06:20.730Z,1011.57
2017-06-13T13:07:30.418Z,1011.52
2017-06-13T13:08:40.800Z,1011.57
2017-06-13T13:09:51.090Z,1011.57
2017-06-13T13:11:01.403Z,1011.56
2017-06-13T13:12:11.690Z,1011.54
2017-06-13T13:13:21.965Z,1011.57
2017-06-13T13:14:32.250Z,1011.55
2017-06-13T13:15:42.222Z,1011.56
2017-06-13T13:16:52.518Z,1011.59
2017-06-13T13:18:02.799Z,1011.51
2017-06-13T13:19:13.078Z,1011.56
2017-06-13T13:20:23.362Z,1011.55
2017-06-13T13:21:33.044Z,1011.6
2017-06-13T13:22:42.745Z,1011.57
2017-06-13T13:23:53.069Z,1011.65
2017-06-13T13:25:03.361Z,1011.6
2017-06-13T13:26:13.670Z,1011.65
2017-06-13T13:27:23.970Z,1011.67
2017-06-13T13:28:34.259Z,1011.67
2017-06-13T13:29:44.543Z,1011.71
2017-06-13T13:30:54.529Z,1011.71
2017-06-13T13:32:04.821Z,1011.72
2017-06-13T13:33:14.796Z,1011.71
2017-06-13T13:34:25.126Z,1011.75
2017-06-13T13:35:35.111Z,1011.73
2017-06-13T13:36:45.404Z,1011.7
2017-06-13T13:37:55.388Z,1011.67
2017-06-13T13:39:05.667Z,1011.68
2017-06-13T13:40:15.960Z,1011.67
2017-06-13T13:41:26.254Z,1011.63
2017-06-13T13:42:36.546Z,1011.65
2017-06-13T13:43:46.828Z,1011.63
2017-06-13T13:44:56.825Z,1011.69
2017-06-13T13:46:07.111Z,1011.68
2017-06-13T13:47:17.406Z,1011.63
2017-06-13T13:48:27.707Z,1011.62
2017-06-13T13:49:38.004Z,1011.58
2017-06-13T13:50:48.302Z,1011.57
2017-06-13T13:51:58.273Z,1011.6
2017-06-13T13:53:08.561Z,1011.61
2017-06-13T13:54:18.851Z,1011.6
2017-06-13T13:55:29.146Z,1011.52
2017-06-13T13:56:39.435Z,1011.59
2017-06-13T13:57:49.094Z,1011.6
2017-06-13T13:58:59.385Z,1011.53
2017-06-13T14:00:09.680Z,1011.58
2017-06-13T14:01:19.649Z,1011.61
2017-06-13T14:02:29.939Z,1011.62
2017-06-13T14:03:40.246Z,1011.54
2017-06-13T14:04:50.525Z,1011.61
2017-06-13T14:06:00.806Z,1011.66
2017-06-13T14:07:11.095Z,1011.66
2017-06-13T14:08:21.084Z,1011.63
2017-06-13T14:09:31.069Z,1011.56
2017-06-13T14:10:41.347Z,1011.56
2017-06-13T14:11:51.017Z,1011.58